Time;durP1;ratioP1;P1;durP2;ratioP2;P2;SDS_P1;SDS_P2;PMS_P1;PMS_P2;Temp;Humidity;BMP_temperature;BMP_pressure;BME280_temperature;BME280_humidity;BME280_pressure;Samples;Min_cycle;Max_cycle;Signal;HPM_P1;HPM_P2
2023/11/27 00:00:27;;;;;;;58.50;21.63;;;;;;;0.96;100.00;100823.50;7393036;19;20460;-42
2023/11/27 00:03:08;;;;;;;48.97;19.53;;;;;;;1.05;100.00;100829.34;7368946;19;20446;-43
2023/11/27 00:05:39;;;;;;;41.23;16.93;;;;;;;1.12;100.00;100832.38;7392504;19;20391;-41
2023/11/27 00:08:08;;;;;;;47.80;17.80;;;;;;;0.97;100.00;100824.41;7368644;19;20431;-41
2023/11/27 00:10:42;;;;;;;41.60;16.03;;;;;;;0.96;100.00;100823.50;7392179;19;20429;-44
2023/11/27 00:13:14;;;;;;;39.07;16.47;;;;;;;0.99;100.00;100820.31;7368846;19;20431;-41
2023/11/27 00:15:44;;;;;;;42.87;15.80;;;;;;;1.15;100.00;100814.81;7392479;19;20394;-41
2023/11/27 00:18:14;;;;;;;51.33;16.30;;;;;;;1.20;100.00;100811.91;7368839;19;20798;-41
2023/11/27 00:20:43;;;;;;;48.80;16.60;;;;;;;1.15;100.00;100805.56;7391392;19;20435;-41
2023/11/27 00:23:13;;;;;;;40.30;16.43;;;;;;;1.16;100.00;100797.16;7368636;19;20489;-41
2023/11/27 00:25:42;;;;;;;39.00;16.20;;;;;;;1.14;100.00;100782.56;7391770;19;20483;-41
2023/11/27 00:28:15;;;;;;;47.90;17.37;;;;;;;1.11;100.00;100773.03;7368324;19;20416;-42
2023/11/27 00:30:45;;;;;;;37.00;15.10;;;;;;;0.96;100.00;100761.63;7391373;19;20439;-42
2023/11/27 00:33:16;;;;;;;41.10;16.10;;;;;;;1.00;100.00;100753.47;7368055;19;20778;-40
2023/11/27 00:35:46;;;;;;;34.87;15.13;;;;;;;0.89;100.00;100748.44;7393164;19;20740;-42
2023/11/27 00:38:16;;;;;;;28.97;14.10;;;;;;;0.98;100.00;100749.94;7368221;19;20453;-40
2023/11/27 00:40:47;;;;;;;34.33;14.10;;;;;;;0.89;100.00;100745.91;7390583;19;20987;-41
2023/11/27 00:43:19;;;;;;;32.00;14.00;;;;;;;0.86;100.00;100735.47;7368502;19;20451;-41
2023/11/27 00:45:49;;;;;;;33.80;13.83;;;;;;;0.91;100.00;100739.28;7391719;19;20419;-39
2023/11/27 00:48:19;;;;;;;35.20;13.50;;;;;;;0.92;100.00;100741.06;7366331;19;20435;-41
2023/11/27 00:50:48;;;;;;;31.30;12.90;;;;;;;0.91;100.00;100739.28;7390796;19;20431;-40
2023/11/27 00:53:18;;;;;;;30.07;12.87;;;;;;;0.88;100.00;100736.47;7367738;19;20427;-39
2023/11/27 00:55:49;;;;;;;32.47;13.77;;;;;;;0.86;100.00;100739.69;7391296;19;20390;-40
2023/11/27 00:58:21;;;;;;;34.43;13.87;;;;;;;0.81;100.00;100744.38;7363617;19;20410;-40
2023/11/27 01:00:51;;;;;;;34.50;13.50;;;;;;;0.79;100.00;100744.28;7391421;19;20428;-39
2023/11/27 01:03:21;;;;;;;32.73;14.67;;;;;;;0.76;100.00;100755.81;7367473;19;20524;-40
2023/11/27 01:05:51;;;;;;;37.13;13.40;;;;;;;0.81;100.00;100757.06;7392821;19;20798;-40
2023/11/27 01:08:21;;;;;;;40.23;14.10;;;;;;;0.82;100.00;100769.00;7368812;19;20511;-41
2023/11/27 01:10:51;;;;;;;40.53;14.77;;;;;;;0.83;100.00;100770.81;7389991;19;20441;-41
2023/11/27 01:13:23;;;;;;;37.73;14.00;;;;;;;0.84;100.00;100786.94;7367410;19;20517;-41
2023/11/27 01:15:56;;;;;;;38.27;13.67;;;;;;;0.86;100.00;100788.84;7392565;19;20479;-42
2023/11/27 01:18:26;;;;;;;41.93;14.90;;;;;;;0.87;100.00;100780.44;7374371;19;20970;-44
2023/11/27 01:20:56;;;;;;;34.40;14.90;;;;;;;0.90;100.00;100783.25;7397031;19;20443;-41
2023/11/27 01:23:26;;;;;;;32.63;13.77;;;;;;;0.87;100.00;100793.13;7374556;19;20823;-41
2023/11/27 01:25:56;;;;;;;40.10;15.50;;;;;;;0.89;100.00;100785.66;7397151;19;20490;-43
2023/11/27 01:28:28;;;;;;;37.03;13.70;;;;;;;0.91;100.00;100792.63;7374005;19;20423;-43
2023/11/27 01:30:58;;;;;;;30.50;12.90;;;;;;;0.95;100.00;100793.78;7396356;19;21179;-42
2023/11/27 01:33:28;;;;;;;39.30;13.57;;;;;;;0.97;100.00;100799.00;7374383;19;20410;-41
2023/11/27 01:35:57;;;;;;;34.17;13.20;;;;;;;1.05;100.00;100793.75;7396991;19;20390;-44
2023/11/27 01:38:27;;;;;;;37.27;14.10;;;;;;;0.99;100.00;100798.34;7373968;19;20828;-41
2023/11/27 01:40:56;;;;;;;34.27;13.63;;;;;;;0.97;100.00;100799.00;7396883;19;20471;-42
2023/11/27 01:43:28;;;;;;;25.73;12.47;;;;;;;0.97;100.00;100794.78;7370586;19;20494;-40
2023/11/27 01:46:20;;;;;;;27.80;13.73;;;;;;;1.00;100.00;100800.13;7396526;19;20410;-41
2023/11/27 01:48:50;;;;;;;34.10;13.70;;;;;;;0.99;100.00;100795.81;7375233;19;20455;-41
2023/11/27 01:51:20;;;;;;;35.00;13.90;;;;;;;0.99;100.00;100794.91;7373500;19;20533;-41
2023/11/27 01:53:49;;;;;;;30.03;12.10;;;;;;;0.99;100.00;100795.81;7397211;19;20394;-41
2023/11/27 01:56:19;;;;;;;29.70;12.70;;;;;;;1.00;100.00;100794.13;7373940;19;20387;-41
2023/11/27 01:58:52;;;;;;;27.83;11.50;;;;;;;1.00;100.00;100799.22;7393605;19;20955;-40
2023/11/27 02:01:22;;;;;;;32.70;14.00;;;;;;;1.00;100.00;100804.31;7372949;19;20526;-41
2023/11/27 02:03:52;;;;;;;28.10;12.27;;;;;;;0.98;100.00;100795.69;7394237;19;20402;-42
2023/11/27 02:06:22;;;;;;;30.73;12.97;;;;;;;0.99;100.00;100802.53;7370646;19;20408;-43
2023/11/27 02:08:51;;;;;;;30.53;12.67;;;;;;;0.98;100.00;100803.31;7393479;19;20487;-41
2023/11/27 02:11:21;;;;;;;25.13;11.87;;;;;;;1.01;100.00;100803.53;7372858;19;20443;-43
2023/11/27 02:13:53;;;;;;;27.27;11.50;;;;;;;0.99;100.00;100805.06;7394607;19;20807;-43
2023/11/27 02:16:24;;;;;;;27.63;12.13;;;;;;;0.98;100.00;100803.31;7373513;19;20411;-42
2023/11/27 02:18:54;;;;;;;26.00;12.40;;;;;;;1.00;100.00;100812.81;7394007;19;20962;-41
2023/11/27 02:21:24;;;;;;;31.80;13.90;;;;;;;1.01;100.00;100809.50;7373056;19;20443;-41
2023/11/27 02:23:56;;;;;;;32.07;13.10;;;;;;;1.02;100.00;100810.41;7394350;19;20946;-42
2023/11/27 02:26:26;;;;;;;40.23;13.73;;;;;;;1.02;100.00;100818.91;7372700;19;20479;-41
2023/11/27 02:28:56;;;;;;;25.70;12.27;;;;;;;0.98;100.00;100818.53;7394138;19;20953;-41
2023/11/27 02:31:27;;;;;;;27.57;12.40;;;;;;;0.96;100.00;100813.34;7373316;19;20431;-41
2023/11/27 02:33:56;;;;;;;38.97;16.43;;;;;;;0.94;100.00;100814.88;7394498;19;20404;-41
2023/11/27 02:36:28;;;;;;;34.63;14.57;;;;;;;0.94;100.00;100815.75;7372878;19;20400;-42
2023/11/27 02:39:00;;;;;;;32.00;14.23;;;;;;;0.91;100.00;100812.97;7396478;19;20386;-42
2023/11/27 02:41:30;;;;;;;31.20;13.27;;;;;;;0.95;100.00;100811.56;7373081;19;20420;-40
2023/11/27 02:44:00;;;;;;;33.00;12.83;;;;;;;0.91;100.00;100807.88;7394376;19;20407;-41
2023/11/27 02:49:13;;;;;;;32.77;12.77;;;;;;;0.91;100.00;100797.72;7387151;19;20403;-41
2023/11/27 02:51:43;;;;;;;30.70;13.03;;;;;;;0.92;100.00;100794.41;7371861;19;20558;-42
2023/11/27 02:54:15;;;;;;;30.10;12.90;;;;;;;0.90;100.00;100790.88;7392957;19;20950;-42
2023/11/27 02:56:45;;;;;;;30.53;12.90;;;;;;;0.92;100.00;100788.47;7370711;19;20419;-41
2023/11/27 02:59:14;;;;;;;28.90;12.23;;;;;;;0.88;100.00;100784.75;7392203;19;20414;-40
2023/11/27 03:01:44;;;;;;;34.73;13.30;;;;;;;0.87;100.00;100775.34;7371629;19;20417;-42
2023/11/27 03:04:13;;;;;;;32.93;15.57;;;;;;;0.88;100.00;100773.72;7394072;19;20390;-41
2023/11/27 03:06:43;;;;;;;29.37;12.10;;;;;;;0.89;100.00;100771.31;7369133;19;20406;-43
2023/11/27 03:09:17;;;;;;;27.53;12.40;;;;;;;0.83;100.00;100769.91;7393413;19;20403;-44
2023/11/27 03:11:47;;;;;;;30.67;11.50;;;;;;;0.87;100.00;100766.88;7371141;19;20423;-42
2023/11/27 03:14:16;;;;;;;34.50;14.43;;;;;;;0.87;100.00;100765.19;7390513;19;20491;-42
2023/11/27 03:16:46;;;;;;;24.00;10.50;;;;;;;0.91;100.00;100763.78;7371454;19;20423;-44
2023/11/27 03:19:16;;;;;;;26.70;11.00;;;;;;;0.92;100.00;100765.59;7392874;19;20399;-40
2023/11/27 03:21:45;;;;;;;29.53;12.07;;;;;;;0.93;100.00;100763.16;7371312;19;20406;-42
2023/11/27 03:24:15;;;;;;;26.33;10.93;;;;;;;0.86;100.00;100760.00;7393567;19;20411;-41
2023/11/27 03:26:44;;;;;;;27.03;11.57;;;;;;;0.86;100.00;100758.34;7372725;19;20502;-42
2023/11/27 03:29:14;;;;;;;28.47;12.40;;;;;;;0.91;100.00;100752.00;7392661;19;20418;-40
2023/11/27 03:31:44;;;;;;;26.23;11.10;;;;;;;0.88;100.00;100751.72;7371027;19;20495;-42
2023/11/27 03:34:13;;;;;;;20.60;8.90;;;;;;;0.85;100.00;100746.41;7393287;19;20856;-41
2023/11/27 03:36:43;;;;;;;21.17;9.00;;;;;;;0.87;100.00;100742.31;7370875;19;20415;-42
2023/11/27 03:39:13;;;;;;;20.83;9.43;;;;;;;0.91;100.00;100735.84;7390883;19;20421;-41
2023/11/27 03:41:45;;;;;;;21.00;9.77;;;;;;;0.89;100.00;100735.75;7371085;19;20415;-42
2023/11/27 03:44:15;;;;;;;26.43;10.20;;;;;;;0.89;100.00;100732.28;7392034;19;20403;-44
2023/11/27 03:46:45;;;;;;;23.40;10.70;;;;;;;0.87;100.00;100727.09;7368851;19;20423;-41
2023/11/27 03:49:16;;;;;;;26.80;10.77;;;;;;;0.85;100.00;100728.63;7392136;19;20420;-41
2023/11/27 03:51:46;;;;;;;19.93;8.90;;;;;;;0.83;100.00;100719.09;7370062;19;21020;-41
2023/11/27 03:54:16;;;;;;;18.07;8.40;;;;;;;0.82;100.00;100722.41;7392668;19;20395;-42
2023/11/27 03:56:48;;;;;;;19.97;9.33;;;;;;;0.81;100.00;100716.44;7370687;19;20419;-42
2023/11/27 03:59:19;;;;;;;21.07;9.50;;;;;;;0.83;100.00;100720.00;7391704;19;20407;-42
2023/11/27 04:01:48;;;;;;;19.73;8.83;;;;;;;0.78;100.00;100716.19;7370175;19;20516;-43
2023/11/27 04:04:19;;;;;;;15.23;7.07;;;;;;;0.79;100.00;100708.72;7392594;19;20412;-40
2023/11/27 04:06:49;;;;;;;20.67;9.07;;;;;;;0.77;100.00;100714.44;7364768;19;20954;-39
2023/11/27 04:09:20;;;;;;;18.93;8.20;;;;;;;0.75;100.00;100713.41;7392414;19;20426;-41
2023/11/27 04:11:53;;;;;;;19.77;8.80;;;;;;;0.76;100.00;100712.63;7369597;19;20431;-43
2023/11/27 04:14:23;;;;;;;27.60;10.67;;;;;;;0.91;100.00;100721.50;7392287;19;20411;-42
2023/11/27 04:16:53;;;;;;;19.53;9.27;;;;;;;0.89;100.00;100720.50;7370645;19;20435;-41
2023/11/27 04:19:22;;;;;;;21.70;10.03;;;;;;;0.82;100.00;100722.41;7391065;19;20432;-41
2023/11/27 04:21:52;;;;;;;21.53;9.00;;;;;;;0.80;100.00;100720.63;7370125;19;20402;-41
2023/11/27 04:24:22;;;;;;;26.03;9.93;;;;;;;0.88;100.00;100703.44;7393908;19;20422;-40
2023/11/27 04:26:54;;;;;;;19.80;8.87;;;;;;;0.91;100.00;100707.88;7369718;19;20506;-43
2023/11/27 04:29:23;;;;;;;24.23;10.20;;;;;;;0.90;100.00;100698.50;7390745;19;20770;-40
2023/11/27 04:31:53;;;;;;;19.30;8.53;;;;;;;0.93;100.00;100686.94;7369373;19;20946;-41
2023/11/27 04:34:22;;;;;;;22.00;9.20;;;;;;;1.00;100.00;100678.16;7391671;19;20404;-41
2023/11/27 04:36:52;;;;;;;20.50;8.80;;;;;;;0.96;100.00;100670.16;7369837;19;20494;-41
2023/11/27 04:39:23;;;;;;;23.47;9.33;;;;;;;0.94;100.00;100657.34;7390949;19;20409;-41
2023/11/27 04:41:55;;;;;;;21.00;9.10;;;;;;;1.01;100.00;100648.53;7369174;19;20816;-42
2023/11/27 04:44:25;;;;;;;16.07;7.43;;;;;;;0.88;100.00;100626.38;7391266;19;20387;-40
2023/11/27 04:46:55;;;;;;;19.17;8.70;;;;;;;0.88;100.00;100622.16;7368169;19;20419;-41
2023/11/27 04:49:25;;;;;;;19.50;9.00;;;;;;;0.79;100.00;100613.81;7390592;19;20445;-40
2023/11/27 04:51:54;;;;;;;19.90;9.00;;;;;;;0.77;100.00;100610.28;7375242;19;20442;-41
2023/11/27 04:54:24;;;;;;;20.57;8.97;;;;;;;0.77;100.00;100617.91;7397827;19;20474;-41
2023/11/27 04:56:56;;;;;;;18.10;7.77;;;;;;;0.74;100.00;100620.19;7375548;19;20443;-40
2023/11/27 04:59:26;;;;;;;18.63;7.80;;;;;;;0.74;100.00;100627.81;7397769;19;20985;-41
2023/11/27 05:01:55;;;;;;;18.63;7.30;;;;;;;0.72;100.00;100625.13;7375090;19;20440;-43
2023/11/27 05:04:25;;;;;;;22.13;9.53;;;;;;;0.73;100.00;100633.66;7397508;19;20424;-42
2023/11/27 05:06:55;;;;;;;18.90;9.10;;;;;;;0.75;100.00;100639.72;7373778;19;20531;-43
2023/11/27 05:09:26;;;;;;;22.97;9.53;;;;;;;0.85;100.00;100646.44;7398811;19;20438;-41
2023/11/27 05:11:58;;;;;;;20.43;8.37;;;;;;;0.82;100.00;100646.19;7376019;19;20423;-42
2023/11/27 05:14:28;;;;;;;15.53;7.70;;;;;;;0.76;100.00;100649.13;7398645;19;20399;-43
2023/11/27 05:16:57;;;;;;;16.27;7.20;;;;;;;0.79;100.00;100652.81;7374078;19;20962;-42
2023/11/27 05:19:29;;;;;;;16.97;6.50;;;;;;;0.79;100.00;100657.91;7396932;19;20431;-42
2023/11/27 05:21:59;;;;;;;20.97;7.50;;;;;;;0.79;100.00;100654.47;7376137;19;20439;-41
2023/11/27 05:24:29;;;;;;;21.27;7.70;;;;;;;0.84;100.00;100665.88;7397483;19;20399;-40
2023/11/27 05:27:01;;;;;;;20.57;7.70;;;;;;;0.76;100.00;100669.44;7375255;19;20819;-43
2023/11/27 05:29:32;;;;;;;19.23;8.13;;;;;;;0.80;100.00;100663.84;7396072;19;20637;-43
2023/11/27 05:32:07;;;;;;;12.73;6.60;;;;;;;0.78;100.00;100665.41;7375101;19;20414;-41
2023/11/27 05:34:37;;;;;;;16.33;6.50;;;;;;;0.80;100.00;100674.00;7397486;19;20411;-41
2023/11/27 05:37:08;;;;;;;16.87;6.40;;;;;;;0.80;100.00;100681.63;7374500;19;20478;-41
2023/11/27 05:39:40;;;;;;;13.60;7.17;;;;;;;0.80;100.00;100674.00;7396236;19;20795;-42
2023/11/27 05:42:13;;;;;;;15.35;7.43;;;;;;;0.85;100.00;100677.81;7374960;19;20502;-42
2023/11/27 05:44:43;;;;;;;14.60;6.77;;;;;;;0.87;100.00;100676.28;7395386;19;20217;-41
2023/11/27 05:47:13;;;;;;;12.57;6.27;;;;;;;0.78;100.00;100670.47;7372701;19;20411;-40
2023/11/27 05:49:43;;;;;;;21.53;8.70;;;;;;;0.83;100.00;100674.28;7395453;19;20427;-42
2023/11/27 05:52:12;;;;;;;11.87;5.60;;;;;;;0.79;100.00;100667.16;7374824;19;20436;-40
2023/11/27 05:54:42;;;;;;;14.87;7.37;;;;;;;0.80;100.00;100668.94;7395486;19;21046;-42
2023/11/27 05:57:14;;;;;;;10.73;5.03;;;;;;;0.84;100.00;100675.16;7374221;19;20430;-41
2023/11/27 05:59:44;;;;;;;11.03;5.57;;;;;;;0.87;100.00;100675.41;7393760;19;20861;-42
2023/11/27 06:02:14;;;;;;;15.37;7.00;;;;;;;0.93;100.00;100666.59;7373766;19;20420;-42
2023/11/27 06:04:45;;;;;;;10.07;4.80;;;;;;;0.87;100.00;100666.09;7395522;19;20452;-43
2023/11/27 06:07:15;;;;;;;20.03;8.27;;;;;;;0.86;100.00;100659.25;7374314;19;20423;-42
2023/11/27 06:09:44;;;;;;;11.40;5.77;;;;;;;0.87;100.00;100663.56;7395601;19;20431;-40
2023/11/27 06:12:17;;;;;;;12.30;5.53;;;;;;;0.91;100.00;100657.97;7374090;19;20439;-42
2023/11/27 06:14:46;;;;;;;12.20;5.23;;;;;;;0.90;100.00;100660.38;7396861;19;20498;-42
2023/11/27 06:17:17;;;;;;;11.17;4.63;;;;;;;0.90;100.00;100652.75;7374362;19;20878;-43
2023/11/27 06:19:46;;;;;;;9.30;4.87;;;;;;;0.92;100.00;100657.22;7394363;19;20435;-42
2023/11/27 06:22:16;;;;;;;9.80;4.30;;;;;;;0.97;100.00;100656.69;7374005;19;20485;-44
2023/11/27 06:24:45;;;;;;;18.13;5.27;;;;;;;0.96;100.00;100655.78;7394947;19;20408;-41
2023/11/27 06:27:18;;;;;;;10.67;5.37;;;;;;;1.00;100.00;100652.75;7373663;19;20996;-42
2023/11/27 06:29:47;;;;;;;12.30;4.60;;;;;;;1.04;100.00;100653.88;7393913;19;20505;-41
2023/11/27 06:32:20;;;;;;;11.63;5.10;;;;;;;1.05;100.00;100650.56;7373694;19;20485;-41
2023/11/27 06:34:50;;;;;;;12.53;5.50;;;;;;;1.02;100.00;100641.03;7394899;19;20483;-42
2023/11/27 06:37:20;;;;;;;10.00;4.50;;;;;;;1.15;100.00;100642.00;7373412;19;20430;-44
2023/11/27 06:39:49;;;;;;;18.63;8.43;;;;;;;1.32;100.00;100650.91;7393588;19;20817;-41
2023/11/27 06:42:21;;;;;;;25.30;11.00;;;;;;;1.32;100.00;100643.28;7373166;19;20514;-42
2023/11/27 06:44:51;;;;;;;16.50;7.17;;;;;;;1.40;100.00;100641.34;7395597;19;20403;-41
2023/11/27 06:47:21;;;;;;;14.67;7.00;;;;;;;1.33;100.00;100627.28;7371343;19;20983;-42
2023/11/27 06:49:52;;;;;;;14.13;6.53;;;;;;;1.50;100.00;100623.50;7389787;19;20439;-42
2023/11/27 06:52:22;;;;;;;15.13;7.47;;;;;;;1.50;100.00;100612.41;7372648;19;20993;-40
2023/11/27 06:54:51;;;;;;;13.10;5.40;;;;;;;1.41;100.00;100593.16;7396407;19;20397;-40
2023/11/27 06:57:23;;;;;;;22.60;8.43;;;;;;;1.45;100.00;100582.44;7372944;19;20782;-42
2023/11/27 06:59:53;;;;;;;14.43;6.67;;;;;;;1.53;100.00;100579.59;7393319;19;21113;-44
2023/11/27 07:02:25;;;;;;;11.73;4.93;;;;;;;1.44;100.00;100557.78;7373500;19;20494;-44
2023/11/27 07:04:55;;;;;;;10.30;4.77;;;;;;;1.32;100.00;100545.03;7394012;19;20479;-43
2023/11/27 07:07:25;;;;;;;11.93;4.53;;;;;;;1.33;100.00;100548.47;7372217;19;20415;-44
2023/11/27 07:09:56;;;;;;;9.33;4.70;;;;;;;1.32;100.00;100539.94;7393701;19;20466;-44
2023/11/27 07:12:28;;;;;;;9.10;4.50;;;;;;;1.32;100.00;100539.94;7372234;19;20565;-43
2023/11/27 07:14:58;;;;;;;8.70;4.53;;;;;;;1.26;100.00;100541.13;7391416;19;20466;-44
2023/11/27 07:17:28;;;;;;;9.27;4.07;;;;;;;1.30;100.00;100545.69;7372466;19;20979;-40
2023/11/27 07:19:57;;;;;;;9.17;3.83;;;;;;;1.27;100.00;100543.78;7392903;19;20502;-42
2023/11/27 07:22:27;;;;;;;13.30;5.90;;;;;;;1.27;100.00;100543.78;7372296;19;20419;-42
2023/11/27 07:24:56;;;;;;;6.13;3.77;;;;;;;1.29;100.00;100549.00;7395922;19;20414;-42
2023/11/27 07:27:29;;;;;;;8.83;3.73;;;;;;;1.24;100.00;100541.03;7372059;19;20415;-40
2023/11/27 07:30:01;;;;;;;6.87;3.90;;;;;;;1.25;100.00;100547.00;7392875;19;20445;-44
2023/11/27 07:32:30;;;;;;;7.03;4.30;;;;;;;1.26;100.00;100546.22;7371916;19;20423;-43
2023/11/27 07:35:00;;;;;;;8.50;4.80;;;;;;;1.27;100.00;100545.47;7393382;19;21064;-41
2023/11/27 07:37:29;;;;;;;8.60;4.40;;;;;;;1.24;100.00;100546.13;7371937;19;20419;-45
2023/11/27 07:39:59;;;;;;;9.53;5.27;;;;;;;1.18;100.00;100543.97;7391945;19;20443;-42
2023/11/27 07:42:31;;;;;;;7.40;4.53;;;;;;;1.20;100.00;100546.66;7371896;19;20450;-46
2023/11/27 07:45:01;;;;;;;7.83;4.10;;;;;;;1.19;100.00;100552.50;7392178;19;20407;-43
2023/11/27 07:47:30;;;;;;;7.33;3.63;;;;;;;1.16;100.00;100549.72;7369735;19;20423;-41
2023/11/27 07:50:00;;;;;;;8.00;4.50;;;;;;;1.15;100.00;100551.38;7391877;19;20474;-43
2023/11/27 07:52:30;;;;;;;13.73;4.60;;;;;;;1.14;100.00;100553.81;7368151;19;20486;-42
2023/11/27 07:55:00;;;;;;;23.23;9.63;;;;;;;1.43;100.00;100550.91;7393313;19;20400;-43
2023/11/27 07:57:33;;;;;;;7.70;4.20;;;;;;;1.37;100.00;100541.97;7370533;19;20886;-42
2023/11/27 08:00:03;;;;;;;14.00;5.00;;;;;;;1.41;100.00;100539.75;7393845;19;20470;-41
2023/11/27 08:02:33;;;;;;;9.47;4.13;;;;;;;1.31;100.00;100527.13;7371475;19;20427;-41
2023/11/27 08:05:06;;;;;;;11.57;4.47;;;;;;;1.25;100.00;100511.41;7391881;19;20411;-42
2023/11/27 08:07:38;;;;;;;10.43;4.93;;;;;;;1.11;100.00;100497.63;7368091;19;22663;-42
2023/11/27 08:10:09;;;;;;;8.70;3.97;;;;;;;1.02;100.00;100490.22;7392947;19;20446;-42
2023/11/27 08:12:42;;;;;;;11.67;4.43;;;;;;;1.02;100.00;100477.53;7371407;19;20423;-43
2023/11/27 08:15:18;;;;;;;8.17;3.67;;;;;;;0.98;100.00;100460.28;7392592;19;20387;-41
2023/11/27 08:17:49;;;;;;;6.37;3.10;;;;;;;0.85;100.00;100458.44;7368381;19;20413;-40
2023/11/27 08:20:18;;;;;;;7.93;3.40;;;;;;;0.83;100.00;100460.88;7392761;19;20443;-39
2023/11/27 08:22:48;;;;;;;6.37;2.97;;;;;;;0.84;100.00;100456.66;7369304;19;20498;-41
2023/11/27 08:25:18;;;;;;;7.37;3.37;;;;;;;0.80;100.00;100465.72;7394779;19;20930;-40
2023/11/27 08:27:52;;;;;;;7.67;3.33;;;;;;;0.79;100.00;100469.03;7377702;19;20453;-46
2023/11/27 08:30:22;;;;;;;7.03;3.60;;;;;;;0.75;100.00;100467.00;7398475;19;20843;-39
2023/11/27 08:32:52;;;;;;;6.17;3.17;;;;;;;0.73;100.00;100473.63;7376552;19;20433;-41
2023/11/27 08:35:21;;;;;;;6.20;3.20;;;;;;;0.69;100.00;100482.69;7398445;19;20411;-41
2023/11/27 08:37:51;;;;;;;6.67;3.60;;;;;;;0.74;100.00;100483.03;7375622;19;20427;-41
2023/11/27 08:40:21;;;;;;;9.27;3.87;;;;;;;0.72;100.00;100489.66;7397796;19;20443;-41
2023/11/27 08:42:53;;;;;;;4.90;2.90;;;;;;;0.65;100.00;100493.34;7375825;19;20423;-42
2023/11/27 08:45:24;;;;;;;7.07;3.23;;;;;;;0.69;100.00;100499.56;7398316;19;20400;-42
2023/11/27 08:47:55;;;;;;;6.23;3.07;;;;;;;0.71;100.00;100506.53;7373767;19;20423;-41
2023/11/27 08:50:27;;;;;;;10.50;3.77;;;;;;;0.71;100.00;100511.63;7397804;19;20426;-41
2023/11/27 08:52:58;;;;;;;8.27;3.27;;;;;;;0.71;100.00;100514.16;7372597;19;20464;-40
2023/11/27 08:55:31;;;;;;;8.80;3.47;;;;;;;0.71;100.00;100511.63;7398409;19;20407;-42
2023/11/27 08:58:06;;;;;;;5.97;2.87;;;;;;;0.78;100.00;100515.53;7375977;19;20820;-42
2023/11/27 09:00:36;;;;;;;7.22;2.95;;;;;;;0.71;100.00;100514.16;7397797;19;20447;-42
2023/11/27 09:03:06;;;;;;;9.20;3.57;;;;;;;0.72;100.00;100515.06;7376541;19;20215;-41
2023/11/27 09:05:41;;;;;;;9.03;3.20;;;;;;;0.66;100.00;100516.34;7398691;19;20443;-43
2023/11/27 09:08:13;;;;;;;5.10;2.60;;;;;;;0.70;100.00;100514.03;7372409;19;20435;-41
2023/11/27 09:10:44;;;;;;;7.33;2.90;;;;;;;0.66;100.00;100513.81;7397043;19;20435;-42
2023/11/27 09:13:16;;;;;;;7.43;3.17;;;;;;;0.61;100.00;100515.09;7375663;19;20438;-41
2023/11/27 09:15:46;;;;;;;7.07;2.93;;;;;;;0.65;100.00;100517.13;7397820;19;20407;-41
2023/11/27 09:18:16;;;;;;;6.13;2.73;;;;;;;0.65;100.00;100522.19;7375219;19;20427;-41
2023/11/27 09:20:46;;;;;;;4.93;2.37;;;;;;;0.61;100.00;100520.16;7395884;19;20523;-42
2023/11/27 09:23:16;;;;;;;11.13;3.70;;;;;;;0.65;100.00;100532.34;7375553;19;21110;-43
2023/11/27 09:25:45;;;;;;;5.47;3.17;;;;;;;0.69;100.00;100527.50;7398831;19;20461;-41
2023/11/27 09:28:18;;;;;;;11.10;3.50;;;;;;;0.79;100.00;100530.00;7375403;19;20790;-45
2023/11/27 09:30:47;;;;;;;4.90;2.90;;;;;;;0.78;100.00;100528.22;7395406;19;20941;-41
2023/11/27 09:33:17;;;;;;;5.17;2.70;;;;;;;0.77;100.00;100526.47;7375795;19;20485;-42
2023/11/27 09:35:46;;;;;;;6.43;2.50;;;;;;;0.77;100.00;100526.47;7396027;19;20424;-41
2023/11/27 09:38:16;;;;;;;7.07;2.83;;;;;;;0.80;100.00;100521.59;7373860;19;20614;-43
2023/11/27 09:40:46;;;;;;;10.77;4.00;;;;;;;0.76;100.00;100520.47;7395358;19;20438;-41
2023/11/27 09:43:18;;;;;;;10.87;3.23;;;;;;;0.86;100.00;100529.69;7374565;19;20183;-41
2023/11/27 09:45:49;;;;;;;9.77;3.07;;;;;;;0.80;100.00;100516.53;7395172;19;20391;-41
2023/11/27 09:48:19;;;;;;;27.90;9.97;;;;;;;0.86;100.00;100513.59;7367012;19;20417;-42
2023/11/27 09:50:51;;;;;;;5.80;3.33;;;;;;;0.88;100.00;100501.88;7394844;19;20435;-40
2023/11/27 09:53:24;;;;;;;7.47;3.50;;;;;;;0.83;100.00;100496.44;7372350;19;20515;-42
2023/11/27 09:55:54;;;;;;;6.90;3.20;;;;;;;0.73;100.00;100484.69;7396576;19;20411;-42
2023/11/27 09:58:26;;;;;;;8.70;4.00;;;;;;;0.76;100.00;100469.69;7373472;19;20474;-43
2023/11/27 10:00:57;;;;;;;8.80;4.00;;;;;;;0.73;100.00;100473.63;7395080;19;20468;-42
2023/11/27 10:03:29;;;;;;;6.20;3.00;;;;;;;0.64;100.00;100449.31;7372298;19;20885;-41
2023/11/27 10:06:02;;;;;;;6.70;3.20;;;;;;;0.62;100.00;100435.59;7395347;19;20390;-43
2023/11/27 10:08:32;;;;;;;4.30;2.47;;;;;;;0.55;100.00;100407.97;7370460;19;20423;-44
2023/11/27 10:11:03;;;;;;;6.33;3.03;;;;;;;0.60;100.00;100382.91;7394357;19;20444;-41
2023/11/27 10:13:35;;;;;;;6.60;2.90;;;;;;;0.61;100.00;100365.28;7373901;19;20463;-43
2023/11/27 10:16:25;;;;;;;7.07;2.83;;;;;;;0.56;100.00;100338.63;7375360;19;20399;-44
2023/11/27 10:18:55;;;;;;;5.63;3.17;;;;;;;0.51;100.00;100320.53;7394152;19;20483;-41
2023/11/27 10:21:25;;;;;;;7.33;2.97;;;;;;;0.46;100.00;100304.06;7372694;19;20447;-44
2023/11/27 10:23:54;;;;;;;5.43;3.30;;;;;;;0.40;100.00;100276.56;7393763;19;20479;-43
2023/11/27 10:26:24;;;;;;;6.90;3.63;;;;;;;0.48;100.00;100267.00;7372842;19;20839;-42
2023/11/27 10:28:57;;;;;;;7.90;3.67;;;;;;;0.45;100.00;100253.19;7394044;19;20386;-43
2023/11/27 10:31:27;;;;;;;6.20;3.20;;;;;;;0.45;100.00;100237.97;7372928;19;20439;-43
2023/11/27 10:33:56;;;;;;;6.90;3.40;;;;;;;0.42;100.00;100225.03;7395498;19;20414;-41
2023/11/27 10:36:26;;;;;;;6.30;3.10;;;;;;;0.44;100.00;100224.38;7372394;19;20387;-43
2023/11/27 10:39:04;;;;;;;7.57;3.63;;;;;;;0.42;100.00;100219.94;7393511;19;20408;-43
2023/11/27 10:41:34;;;;;;;5.23;3.00;;;;;;;0.44;100.00;100215.88;7370800;19;20389;-41
2023/11/27 10:44:08;;;;;;;5.93;3.07;;;;;;;0.46;100.00;100205.06;7390889;19;20404;-42
2023/11/27 10:46:39;;;;;;;7.87;3.23;;;;;;;0.46;100.00;100199.09;7371928;19;20391;-44
2023/11/27 10:49:09;;;;;;;5.80;3.20;;;;;;;0.53;100.00;100191.16;7391724;19;20386;-43
2023/11/27 10:51:44;;;;;;;8.10;3.37;;;;;;;0.47;100.00;100180.56;7372875;19;20522;-42
2023/11/27 10:54:17;;;;;;;10.30;4.33;;;;;;;0.47;100.00;100181.44;7393853;19;20403;-41
2023/11/27 10:56:47;;;;;;;6.83;3.40;;;;;;;0.46;100.00;100166.13;7373721;19;20514;-42
2023/11/27 10:59:22;;;;;;;7.90;3.67;;;;;;;0.49;100.00;100161.25;7391630;19;20409;-42
2023/11/27 11:01:54;;;;;;;6.03;2.90;;;;;;;0.48;100.00;100156.94;7374043;19;20436;-41
2023/11/27 11:04:30;;;;;;;5.20;3.03;;;;;;;0.48;100.00;100152.75;7394359;19;20413;-44
2023/11/27 11:07:04;;;;;;;8.17;3.57;;;;;;;0.51;100.00;100158.03;7372935;19;20436;-41
2023/11/27 11:09:34;;;;;;;6.90;3.47;;;;;;;0.52;100.00;100148.78;7390016;19;20418;-42
2023/11/27 11:12:05;;;;;;;6.73;3.10;;;;;;;0.56;100.00;100160.03;7371638;19;20486;-43
2023/11/27 11:14:37;;;;;;;6.07;3.23;;;;;;;0.54;100.00;100157.38;7394282;19;20479;-41
2023/11/27 11:17:11;;;;;;;7.20;2.90;;;;;;;0.50;100.00;100153.75;7371482;19;20506;-41
2023/11/27 11:19:45;;;;;;;6.13;3.23;;;;;;;0.56;100.00;100150.75;7393538;19;20426;-42
2023/11/27 11:22:26;;;;;;;5.57;3.00;;;;;;;0.58;100.00;100148.34;7370926;19;21037;-42
2023/11/27 11:25:00;;;;;;;5.30;3.17;;;;;;;0.60;100.00;100155.28;7393679;19;20415;-43
2023/11/27 11:27:34;;;;;;;5.50;3.60;;;;;;;0.56;100.00;100142.28;7371389;19;20812;-43
2023/11/27 11:30:12;;;;;;;5.17;2.87;;;;;;;0.56;100.00;100143.13;7392499;19;20242;-41
2023/11/27 11:32:42;;;;;;;5.37;3.10;;;;;;;0.55;100.00;100143.03;7372122;19;20403;-42
2023/11/27 11:35:13;;;;;;;10.13;4.00;;;;;;;0.59;100.00;100140.84;7393745;19;20391;-43